Stations météo

réclame
Mon MeteoGroup
Rodkallen, Suède (2188): Température de l'air & dewpoint: 11.08.2019 15:00:00 - 17.08.2019 15:00:00 (CEST)Rodkallen, Suède (2188): Vitesse du vent & gusts: 11.08.2019 15:00:00 - 17.08.2019 15:00:00 (CEST)Rodkallen, Suède (2188): Direction du vent: 11.08.2019 15:00:00 - 17.08.2019 15:00:00 (CEST)Rodkallen, Suède (2188): visibility: 11.08.2019 15:00:00 - 17.08.2019 15:00:00 (CEST)Rodkallen, Suède (2188): Quantités de précipitations: 11.08.2019 15:00:00 - 17.08.2019 15:00:00 (CEST)
Date & Time tt [°C] td [°C] ff [km/h] ff [knt] fx [km/h] fx [knt] dd vv [km] rr [mm]
17.08.2019 15:00:00 - - - - - - - - -
17.08.2019 14:00:00 16,6 15,0 32 17 39 21 SSE 20 0,0
17.08.2019 13:00:00 16,5 14,9 31 17 41 22 S 15 0,0
17.08.2019 12:00:00 16,3 14,3 29 16 39 21 S 24 0,0
17.08.2019 11:00:00 16,3 14,3 31 17 37 20 S 24 0,0
17.08.2019 10:00:00 16,2 14,2 26 14 37 20 S 29 0,0
17.08.2019 09:00:00 16,0 14,2 27 15 37 20 S 27 0,0
17.08.2019 08:00:00 16,0 14,4 29 16 36 19 S 23 0,0
17.08.2019 07:00:00 16,0 14,2 29 15 34 19 S 34 0,0
17.08.2019 06:00:00 15,9 13,9 27 15 35 19 S 31 0,0
17.08.2019 05:00:00 15,8 13,5 27 15 34 19 SSE 45 0,0
17.08.2019 04:00:00 15,8 14,0 22 12 37 20 SSE 38 0,0
17.08.2019 03:00:00 16,0 13,7 32 17 40 21 S 15 0,0
17.08.2019 02:00:00 15,8 14,3 34 18 41 22 S 28 0,0
17.08.2019 01:00:00 15,7 14,1 32 17 43 23 S 25 0,0
17.08.2019 00:00:00 15,9 13,7 35 19 48 26 S 32 0,0
16.08.2019 23:00:00 16,0 14,0 37 20 47 26 S 31 0,0
16.08.2019 22:00:00 16,1 13,8 38 21 48 26 S 32 0,0
16.08.2019 21:00:00 16,4 12,9 37 20 44 24 S 47 0,0
16.08.2019 20:00:00 16,7 13,0 36 20 44 24 S 43 0,0
16.08.2019 19:00:00 16,9 13,0 35 19 41 22 S 42 0,0
16.08.2019 18:00:00 17,1 13,4 28 15 34 18 S 48 0,0
16.08.2019 17:00:00 17,3 12,8 28 15 36 20 S 42 0,0
16.08.2019 16:00:00 17,3 13,0 26 14 33 18 S 43 0,0
16.08.2019 15:00:00 17,2 13,5 22 12 26 14 S 37 0,0
16.08.2019 14:00:00 17,1 13,6 17 9 23 13 S 35 0,0
16.08.2019 13:00:00 16,8 13,5 16 8 18 10 S 41 0,0
16.08.2019 12:00:00 17,6 13,3 5 3 8 4 S 40 0,0
16.08.2019 11:00:00 16,6 13,5 4 2 9 5 SSW 36 0,0
16.08.2019 10:00:00 16,2 13,5 4 2 6 3 WSW 37 0,0
16.08.2019 09:00:00 16,3 13,8 2 1 5 3 SSE 41 0,0
16.08.2019 08:00:00 15,9 13,4 0 0 8 4 N 38 0,0
16.08.2019 07:00:00 15,8 13,5 7 4 11 6 N 39 0,0
16.08.2019 06:00:00 14,9 13,1 9 5 13 7 NNW 45 0,0
16.08.2019 05:00:00 14,5 13,0 8 4 11 6 NW 50 0,0
16.08.2019 04:00:00 14,1 12,5 6 3 10 5 NW 50 0,0
16.08.2019 03:00:00 14,1 12,1 8 4 13 7 NNW 50 0,0
16.08.2019 02:00:00 14,2 13,2 9 5 13 7 NW 50 0,0
16.08.2019 01:00:00 14,8 13,8 11 6 15 8 WNW 50 0,0
16.08.2019 00:00:00 15,4 14,1 10 5 14 7 WNW 50 0,0
15.08.2019 23:00:00 15,6 14,1 9 5 19 10 W 40 0,0
15.08.2019 22:00:00 15,8 14,2 15 8 19 10 W 50 0,0
15.08.2019 21:00:00 16,0 14,5 13 7 16 8 W 50 0,0
15.08.2019 20:00:00 16,1 14,1 15 8 18 10 WNW 50 0,0
15.08.2019 19:00:00 16,0 14,2 14 8 18 10 W 50 0,0
15.08.2019 18:00:00 16,3 14,0 15 8 20 11 WSW 50 0,0
15.08.2019 17:00:00 16,6 13,7 12 7 17 9 W 50 0,0
15.08.2019 16:00:00 17,7 14,4 12 6 18 10 W 34 0,0
15.08.2019 15:00:00 16,2 13,7 10 5 13 7 WSW 39 0,0
15.08.2019 14:00:00 14,6 12,1 8 5 18 10 WSW 46 2,4
15.08.2019 13:00:00 15,1 13,3 12 7 17 9 WNW 14 0,3
15.08.2019 12:00:00 15,5 13,9 7 4 12 6 W 21 0,1
15.08.2019 11:00:00 16,0 12,9 10 5 16 9 NW 34 0,0
15.08.2019 10:00:00 15,9 13,4 8 4 10 5 WNW 50 0,0
15.08.2019 09:00:00 15,4 13,1 3 1 7 4 NNW 45 0,0
15.08.2019 08:00:00 15,1 13,5 5 3 12 7 ENE 28 0,0
15.08.2019 07:00:00 15,0 13,9 11 6 13 7 ENE 28 0,0
15.08.2019 06:00:00 15,2 13,6 7 4 11 6 ENE 33 0,0
15.08.2019 05:00:00 15,2 13,4 9 5 13 7 NNE 50 0,0
15.08.2019 04:00:00 15,2 13,2 10 6 13 7 NNE 49 0,0
15.08.2019 03:00:00 15,1 13,5 9 5 12 6 NNE 50 0,0
15.08.2019 02:00:00 15,0 13,7 6 4 8 4 NE 45 0,0
15.08.2019 01:00:00 14,7 13,4 4 2 9 5 E 37 0,0
15.08.2019 00:00:00 15,1 13,6 7 4 10 5 ESE 33 0,0
14.08.2019 23:00:00 15,2 13,7 6 3 10 5 E 37 0,0
14.08.2019 22:00:00 15,2 13,7 9 5 16 9 SE 48 0,0
14.08.2019 21:00:00 15,2 13,4 10 6 14 8 ESE 49 0,0
14.08.2019 20:00:00 15,4 13,1 10 5 15 8 SE 50 0,0
14.08.2019 19:00:00 15,4 13,4 8 4 13 7 SE 26 0,0
14.08.2019 18:00:00 15,6 13,8 8 4 13 7 ESE 32 0,0
14.08.2019 17:00:00 15,6 14,1 9 5 13 7 ESE 29 0,0
14.08.2019 16:00:00 15,7 13,9 9 5 16 9 SSE 33 0,0
14.08.2019 15:00:00 15,9 14,3 10 5 16 9 SSE 33 0,0
14.08.2019 14:00:00 16,2 14,6 13 7 19 11 S 37 0,0
14.08.2019 13:00:00 16,0 14,5 14 7 17 9 S 40 0,0
14.08.2019 12:00:00 15,3 14,2 15 8 19 10 SE 24 0,0
14.08.2019 11:00:00 15,2 14,2 16 9 21 11 SE 17 0,0
14.08.2019 10:00:00 15,2 14,2 16 9 19 11 SE 24 0,0
14.08.2019 09:00:00 15,1 14,1 16 9 20 11 SE 22 0,0
14.08.2019 08:00:00 15,0 14,0 18 10 20 11 SE 20 0,0
14.08.2019 07:00:00 14,9 14,1 16 9 22 12 SE 22 0,0
14.08.2019 06:00:00 15,0 14,4 21 11 27 15 SE 16 0,0
14.08.2019 05:00:00 15,0 14,4 20 11 26 14 SE 11 0,0
14.08.2019 04:00:00 15,0 14,4 22 12 25 13 SE 12 0,0
14.08.2019 03:00:00 15,1 14,5 18 10 21 12 SE 9 0,2
14.08.2019 02:00:00 15,1 14,3 15 8 19 10 SE 16 0,0
14.08.2019 01:00:00 15,3 14,5 13 7 17 9 SE 20 0,0
14.08.2019 00:00:00 15,3 14,3 15 8 18 10 ESE 23 0,0
13.08.2019 23:00:00 15,5 14,0 13 7 19 10 SE 34 0,0
13.08.2019 22:00:00 15,4 14,3 16 8 20 11 SSE 23 0,0
13.08.2019 21:00:00 15,5 14,4 18 10 22 12 SE 21 0,0
13.08.2019 20:00:00 15,5 14,5 16 9 20 11 ESE 17 0,0
13.08.2019 19:00:00 15,4 14,4 16 8 21 11 ESE 14 0,0
13.08.2019 18:00:00 15,3 14,2 16 9 20 11 ESE 15 0,0
13.08.2019 17:00:00 15,3 14,0 11 6 16 9 E 25 0,0
13.08.2019 16:00:00 15,3 14,2 10 5 24 13 SSE 17 0,0
13.08.2019 15:00:00 15,9 15,3 19 11 24 13 S 22 0,0
13.08.2019 14:00:00 15,0 14,5 21 11 26 14 SSE 2,6 1,4
13.08.2019 13:00:00 15,0 14,4 18 10 22 12 SE 13 0,4
13.08.2019 12:00:00 15,1 14,1 16 9 19 10 SE 11 0,1
13.08.2019 11:00:00 15,3 14,2 15 8 19 10 SE 15 0,0
13.08.2019 10:00:00 15,3 14,2 16 9 21 12 SE 19 0,0
13.08.2019 09:00:00 15,2 14,1 18 10 22 12 SE 19 0,0
13.08.2019 08:00:00 15,3 14,2 18 10 22 12 SE 20 0,0
13.08.2019 07:00:00 15,5 14,2 16 9 21 11 SE 20 0,0
13.08.2019 06:00:00 15,3 14,0 15 8 22 12 SE 24 0,0
13.08.2019 05:00:00 15,4 14,3 19 10 26 14 SE 22 0,0
13.08.2019 04:00:00 15,5 14,4 21 11 26 14 SE 16 0,0
13.08.2019 03:00:00 15,3 14,7 20 11 26 14 SE 20 0,0
13.08.2019 02:00:00 15,3 14,5 22 12 32 17 SE 25 0,0
13.08.2019 01:00:00 15,4 14,6 27 14 32 17 SE 23 0,2
13.08.2019 00:00:00 15,5 14,5 23 12 29 16 SE 13 0,0
12.08.2019 23:00:00 15,4 14,6 23 13 31 17 SE 16 0,0
12.08.2019 22:00:00 15,4 14,4 24 13 35 19 SE 15 0,0
12.08.2019 21:00:00 15,6 14,5 23 12 31 17 SSE 17 0,0
12.08.2019 20:00:00 15,6 14,5 24 13 31 17 SSE 17 0,0
12.08.2019 19:00:00 15,7 14,6 27 14 33 18 SE 17 0,0
12.08.2019 18:00:00 15,8 14,7 21 11 30 16 SSE 16 0,0
12.08.2019 17:00:00 15,9 14,8 24 13 35 19 SSE 17 0,0
12.08.2019 16:00:00 16,2 14,7 26 14 32 18 SSE 17 0,0
12.08.2019 15:00:00 15,9 15,1 24 13 30 16 SSE 13 0,0
12.08.2019 14:00:00 15,7 15,1 23 12 29 16 SSE 14 0,1
12.08.2019 13:00:00 15,4 14,9 22 12 27 15 SE 8 2,1
12.08.2019 12:00:00 15,3 14,8 23 13 29 16 SE 8 0,5
12.08.2019 11:00:00 14,8 14,3 22 12 30 16 ESE 7 2,0
12.08.2019 10:00:00 14,7 14,1 19 10 26 14 ESE 4,2 0,0
12.08.2019 09:00:00 14,6 14,0 21 12 27 15 ESE 14 0,0
12.08.2019 08:00:00 14,6 13,8 21 12 27 14 SE 27 0,0
12.08.2019 07:00:00 14,5 13,7 21 11 31 17 ESE 6 0,0
12.08.2019 06:00:00 15,0 13,0 24 13 31 17 ESE 47 0,0
12.08.2019 05:00:00 15,2 13,0 23 13 30 16 SE 50 0,0
12.08.2019 04:00:00 15,4 12,9 22 12 28 15 ESE 49 0,0
12.08.2019 03:00:00 15,5 13,0 20 11 25 14 SE 50 0,0
12.08.2019 02:00:00 15,7 13,4 19 11 25 14 SE 50 0,0
12.08.2019 01:00:00 16,0 13,3 16 9 29 16 SE 50 0,0
12.08.2019 00:00:00 16,0 13,5 20 11 31 17 SE 50 0,0
11.08.2019 23:00:00 16,8 13,3 26 14 34 19 SE 50 0,0
11.08.2019 22:00:00 16,8 13,3 15 8 27 15 SSE 50 0,0
11.08.2019 21:00:00 16,6 13,9 19 10 26 14 SE 44 0,0
11.08.2019 20:00:00 16,4 14,2 22 12 31 17 ESE 50 0,0
11.08.2019 19:00:00 16,8 14,3 21 12 26 14 E 42 0,0
11.08.2019 18:00:00 16,5 14,1 18 10 24 13 E 41 0,0
11.08.2019 17:00:00 16,7 13,8 18 10 23 13 ESE 37 0,0
11.08.2019 16:00:00 16,6 13,9 16 9 21 12 ESE 26 0,0
11.08.2019 15:00:00 16,4 13,3 15 8 21 11 ESE 36 0,0

tt = Température de l'air
td = dewpoint
ff = Vitesse du vent
fx = gusts
dd = Direction du vent
vv = visibility
rr = Quantités de précipitations

stations d'obs. à proximité